sensor_id;sensor_type;location;lat;lon;timestamp;P1;durP1;ratioP1;P2;durP2;ratioP2
16524;SDS011;8375;33.594;-117.718;2023-04-07T00:00:07;3.35;;;1.55;;
16524;SDS011;8375;33.594;-117.718;2023-04-07T00:02:36;2.70;;;1.60;;
16524;SDS011;8375;33.594;-117.718;2023-04-07T00:05:07;4.22;;;1.60;;
16524;SDS011;8375;33.594;-117.718;2023-04-07T00:07:35;3.85;;;1.70;;
16524;SDS011;8375;33.594;-117.718;2023-04-07T00:10:04;2.28;;;1.30;;
16524;SDS011;8375;33.594;-117.718;2023-04-07T00:12:34;4.53;;;1.40;;
16524;SDS011;8375;33.594;-117.718;2023-04-07T00:15:03;5.70;;;1.48;;
16524;SDS011;8375;33.594;-117.718;2023-04-07T00:17:32;5.35;;;1.67;;
16524;SDS011;8375;33.594;-117.718;2023-04-07T00:20:01;3.40;;;1.35;;
16524;SDS011;8375;33.594;-117.718;2023-04-07T00:22:33;2.50;;;1.35;;
16524;SDS011;8375;33.594;-117.718;2023-04-07T00:25:01;3.47;;;1.55;;
16524;SDS011;8375;33.594;-117.718;2023-04-07T00:27:30;3.38;;;1.70;;
16524;SDS011;8375;33.594;-117.718;2023-04-07T00:30:00;3.58;;;1.35;;
16524;SDS011;8375;33.594;-117.718;2023-04-07T00:32:29;2.75;;;1.83;;
16524;SDS011;8375;33.594;-117.718;2023-04-07T00:34:57;1.85;;;1.38;;
16524;SDS011;8375;33.594;-117.718;2023-04-07T00:37:26;4.13;;;1.30;;
16524;SDS011;8375;33.594;-117.718;2023-04-07T00:39:56;6.07;;;1.45;;
16524;SDS011;8375;33.594;-117.718;2023-04-07T00:42:25;2.60;;;1.50;;
16524;SDS011;8375;33.594;-117.718;2023-04-07T00:44:54;4.38;;;1.70;;
16524;SDS011;8375;33.594;-117.718;2023-04-07T00:47:22;2.65;;;1.50;;
16524;SDS011;8375;33.594;-117.718;2023-04-07T00:49:51;3.35;;;1.60;;
16524;SDS011;8375;33.594;-117.718;2023-04-07T00:52:20;3.17;;;1.50;;
16524;SDS011;8375;33.594;-117.718;2023-04-07T00:54:53;4.72;;;1.40;;
16524;SDS011;8375;33.594;-117.718;2023-04-07T00:57:24;4.25;;;1.80;;
16524;SDS011;8375;33.594;-117.718;2023-04-07T00:59:53;3.63;;;1.70;;
16524;SDS011;8375;33.594;-117.718;2023-04-07T01:02:25;5.43;;;1.90;;
16524;SDS011;8375;33.594;-117.718;2023-04-07T01:05:01;5.10;;;1.80;;
16524;SDS011;8375;33.594;-117.718;2023-04-07T01:07:38;5.03;;;1.80;;
16524;SDS011;8375;33.594;-117.718;2023-04-07T01:10:18;4.25;;;1.95;;
16524;SDS011;8375;33.594;-117.718;2023-04-07T01:12:56;6.20;;;1.83;;
16524;SDS011;8375;33.594;-117.718;2023-04-07T01:15:32;4.80;;;1.88;;
16524;SDS011;8375;33.594;-117.718;2023-04-07T01:18:05;3.33;;;1.33;;
16524;SDS011;8375;33.594;-117.718;2023-04-07T01:20:39;2.97;;;1.50;;
16524;SDS011;8375;33.594;-117.718;2023-04-07T01:23:14;3.50;;;1.40;;
16524;SDS011;8375;33.594;-117.718;2023-04-07T01:26:03;4.33;;;2.10;;
16524;SDS011;8375;33.594;-117.718;2023-04-07T01:28:48;4.05;;;1.80;;
16524;SDS011;8375;33.594;-117.718;2023-04-07T01:31:33;3.60;;;1.70;;
16524;SDS011;8375;33.594;-117.718;2023-04-07T01:34:06;5.63;;;1.90;;
16524;SDS011;8375;33.594;-117.718;2023-04-07T01:36:37;4.17;;;1.70;;
16524;SDS011;8375;33.594;-117.718;2023-04-07T01:39:06;4.03;;;2.23;;
16524;SDS011;8375;33.594;-117.718;2023-04-07T01:41:36;4.23;;;1.80;;
16524;SDS011;8375;33.594;-117.718;2023-04-07T01:44:05;3.63;;;1.60;;
16524;SDS011;8375;33.594;-117.718;2023-04-07T01:46:37;7.43;;;2.40;;
16524;SDS011;8375;33.594;-117.718;2023-04-07T01:49:06;6.20;;;2.30;;
16524;SDS011;8375;33.594;-117.718;2023-04-07T01:51:35;6.37;;;2.13;;
16524;SDS011;8375;33.594;-117.718;2023-04-07T01:54:05;8.27;;;2.20;;
16524;SDS011;8375;33.594;-117.718;2023-04-07T01:56:34;4.00;;;2.27;;
16524;SDS011;8375;33.594;-117.718;2023-04-07T01:59:02;4.97;;;1.87;;
16524;SDS011;8375;33.594;-117.718;2023-04-07T02:01:31;5.33;;;2.20;;
16524;SDS011;8375;33.594;-117.718;2023-04-07T02:04:04;6.97;;;2.10;;
16524;SDS011;8375;33.594;-117.718;2023-04-07T02:06:39;3.70;;;1.70;;
16524;SDS011;8375;33.594;-117.718;2023-04-07T02:09:12;3.63;;;2.00;;
16524;SDS011;8375;33.594;-117.718;2023-04-07T02:11:44;6.13;;;2.07;;
16524;SDS011;8375;33.594;-117.718;2023-04-07T02:14:13;4.43;;;2.50;;
16524;SDS011;8375;33.594;-117.718;2023-04-07T02:16:42;5.90;;;2.37;;
16524;SDS011;8375;33.594;-117.718;2023-04-07T02:19:14;6.93;;;3.00;;
16524;SDS011;8375;33.594;-117.718;2023-04-07T02:21:43;3.83;;;2.50;;
16524;SDS011;8375;33.594;-117.718;2023-04-07T02:24:13;4.37;;;2.10;;
16524;SDS011;8375;33.594;-117.718;2023-04-07T02:26:45;3.43;;;1.77;;
16524;SDS011;8375;33.594;-117.718;2023-04-07T02:29:14;5.50;;;2.23;;
16524;SDS011;8375;33.594;-117.718;2023-04-07T02:31:43;2.87;;;1.80;;
16524;SDS011;8375;33.594;-117.718;2023-04-07T02:34:12;3.93;;;2.00;;
16524;SDS011;8375;33.594;-117.718;2023-04-07T02:36:42;4.13;;;1.80;;
16524;SDS011;8375;33.594;-117.718;2023-04-07T02:39:11;3.93;;;1.90;;
16524;SDS011;8375;33.594;-117.718;2023-04-07T02:41:39;5.97;;;1.70;;
16524;SDS011;8375;33.594;-117.718;2023-04-07T02:44:08;4.77;;;1.87;;
16524;SDS011;8375;33.594;-117.718;2023-04-07T02:46:37;4.10;;;2.17;;
16524;SDS011;8375;33.594;-117.718;2023-04-07T02:49:06;4.90;;;2.03;;
16524;SDS011;8375;33.594;-117.718;2023-04-07T02:51:36;3.07;;;1.60;;
16524;SDS011;8375;33.594;-117.718;2023-04-07T02:54:05;4.23;;;1.50;;
16524;SDS011;8375;33.594;-117.718;2023-04-07T02:56:34;3.20;;;1.60;;
16524;SDS011;8375;33.594;-117.718;2023-04-07T02:59:02;6.53;;;1.63;;
16524;SDS011;8375;33.594;-117.718;2023-04-07T03:01:31;4.70;;;1.70;;
16524;SDS011;8375;33.594;-117.718;2023-04-07T03:04:00;2.27;;;1.43;;
16524;SDS011;8375;33.594;-117.718;2023-04-07T03:06:29;5.63;;;1.53;;
16524;SDS011;8375;33.594;-117.718;2023-04-07T03:08:59;3.90;;;1.60;;
16524;SDS011;8375;33.594;-117.718;2023-04-07T03:11:28;4.40;;;1.80;;
16524;SDS011;8375;33.594;-117.718;2023-04-07T03:13:57;4.07;;;1.70;;
16524;SDS011;8375;33.594;-117.718;2023-04-07T03:16:25;5.53;;;2.20;;
16524;SDS011;8375;33.594;-117.718;2023-04-07T03:18:54;3.73;;;1.50;;
16524;SDS011;8375;33.594;-117.718;2023-04-07T03:21:22;4.43;;;1.53;;
16524;SDS011;8375;33.594;-117.718;2023-04-07T03:23:53;4.93;;;1.60;;
16524;SDS011;8375;33.594;-117.718;2023-04-07T03:26:23;2.50;;;1.33;;
16524;SDS011;8375;33.594;-117.718;2023-04-07T03:28:52;4.90;;;1.80;;
16524;SDS011;8375;33.594;-117.718;2023-04-07T03:31:21;3.57;;;1.97;;
16524;SDS011;8375;33.594;-117.718;2023-04-07T03:33:49;2.90;;;1.57;;
16524;SDS011;8375;33.594;-117.718;2023-04-07T03:36:18;5.27;;;1.90;;
16524;SDS011;8375;33.594;-117.718;2023-04-07T03:38:47;4.20;;;1.80;;
16524;SDS011;8375;33.594;-117.718;2023-04-07T03:41:15;2.57;;;1.53;;
16524;SDS011;8375;33.594;-117.718;2023-04-07T03:43:46;4.73;;;2.27;;
16524;SDS011;8375;33.594;-117.718;2023-04-07T03:46:14;8.77;;;1.93;;
16524;SDS011;8375;33.594;-117.718;2023-04-07T03:48:43;3.93;;;1.80;;
16524;SDS011;8375;33.594;-117.718;2023-04-07T03:51:12;4.03;;;1.60;;
16524;SDS011;8375;33.594;-117.718;2023-04-07T03:53:41;5.63;;;1.93;;
16524;SDS011;8375;33.594;-117.718;2023-04-07T03:56:09;3.77;;;1.77;;
16524;SDS011;8375;33.594;-117.718;2023-04-07T03:58:38;4.97;;;1.80;;
16524;SDS011;8375;33.594;-117.718;2023-04-07T04:01:09;3.50;;;1.87;;
16524;SDS011;8375;33.594;-117.718;2023-04-07T04:03:37;3.63;;;1.67;;
16524;SDS011;8375;33.594;-117.718;2023-04-07T04:06:06;4.63;;;1.83;;
16524;SDS011;8375;33.594;-117.718;2023-04-07T04:08:35;3.63;;;2.03;;
16524;SDS011;8375;33.594;-117.718;2023-04-07T04:11:04;3.73;;;1.80;;
16524;SDS011;8375;33.594;-117.718;2023-04-07T04:13:32;2.80;;;1.60;;
16524;SDS011;8375;33.594;-117.718;2023-04-07T04:16:01;4.03;;;1.57;;
16524;SDS011;8375;33.594;-117.718;2023-04-07T04:18:31;2.67;;;1.53;;
16524;SDS011;8375;33.594;-117.718;2023-04-07T04:21:00;3.73;;;1.93;;
16524;SDS011;8375;33.594;-117.718;2023-04-07T04:23:28;4.63;;;1.60;;
16524;SDS011;8375;33.594;-117.718;2023-04-07T04:25:57;3.27;;;1.80;;
16524;SDS011;8375;33.594;-117.718;2023-04-07T04:28:28;6.60;;;2.13;;
16524;SDS011;8375;33.594;-117.718;2023-04-07T04:30:57;5.03;;;1.90;;
16524;SDS011;8375;33.594;-117.718;2023-04-07T04:33:25;3.20;;;1.70;;
16524;SDS011;8375;33.594;-117.718;2023-04-07T04:35:56;3.43;;;1.67;;
16524;SDS011;8375;33.594;-117.718;2023-04-07T04:38:25;3.27;;;1.60;;
16524;SDS011;8375;33.594;-117.718;2023-04-07T04:40:53;5.43;;;1.90;;
16524;SDS011;8375;33.594;-117.718;2023-04-07T04:43:22;4.17;;;1.70;;
16524;SDS011;8375;33.594;-117.718;2023-04-07T04:45:51;3.10;;;1.70;;
16524;SDS011;8375;33.594;-117.718;2023-04-07T04:48:20;3.53;;;2.00;;
16524;SDS011;8375;33.594;-117.718;2023-04-07T04:50:49;4.07;;;1.93;;
16524;SDS011;8375;33.594;-117.718;2023-04-07T04:53:19;3.20;;;1.77;;
16524;SDS011;8375;33.594;-117.718;2023-04-07T04:55:48;5.87;;;2.47;;
16524;SDS011;8375;33.594;-117.718;2023-04-07T04:58:18;2.67;;;1.93;;
16524;SDS011;8375;33.594;-117.718;2023-04-07T05:00:47;4.53;;;2.10;;
16524;SDS011;8375;33.594;-117.718;2023-04-07T05:03:15;4.97;;;1.80;;
16524;SDS011;8375;33.594;-117.718;2023-04-07T05:05:47;2.67;;;1.63;;
16524;SDS011;8375;33.594;-117.718;2023-04-07T05:08:15;3.60;;;2.10;;
16524;SDS011;8375;33.594;-117.718;2023-04-07T05:10:47;5.37;;;2.10;;
16524;SDS011;8375;33.594;-117.718;2023-04-07T05:13:15;8.33;;;2.33;;
16524;SDS011;8375;33.594;-117.718;2023-04-07T05:15:44;3.07;;;1.97;;
16524;SDS011;8375;33.594;-117.718;2023-04-07T05:18:13;5.77;;;1.80;;
16524;SDS011;8375;33.594;-117.718;2023-04-07T05:20:42;5.97;;;1.90;;
16524;SDS011;8375;33.594;-117.718;2023-04-07T05:23:10;3.50;;;1.50;;
16524;SDS011;8375;33.594;-117.718;2023-04-07T05:25:39;3.27;;;1.80;;
16524;SDS011;8375;33.594;-117.718;2023-04-07T05:28:09;3.67;;;1.60;;
16524;SDS011;8375;33.594;-117.718;2023-04-07T05:30:38;2.40;;;1.73;;
16524;SDS011;8375;33.594;-117.718;2023-04-07T05:33:07;5.63;;;2.03;;
16524;SDS011;8375;33.594;-117.718;2023-04-07T05:35:35;3.33;;;1.80;;
16524;SDS011;8375;33.594;-117.718;2023-04-07T05:38:04;3.47;;;1.73;;
16524;SDS011;8375;33.594;-117.718;2023-04-07T05:40:33;4.13;;;1.93;;
16524;SDS011;8375;33.594;-117.718;2023-04-07T05:43:01;5.53;;;1.77;;
16524;SDS011;8375;33.594;-117.718;2023-04-07T05:45:32;3.63;;;1.70;;
16524;SDS011;8375;33.594;-117.718;2023-04-07T05:48:00;4.33;;;1.80;;
16524;SDS011;8375;33.594;-117.718;2023-04-07T05:50:29;5.43;;;1.90;;
16524;SDS011;8375;33.594;-117.718;2023-04-07T05:52:58;2.53;;;1.73;;
16524;SDS011;8375;33.594;-117.718;2023-04-07T05:55:26;4.73;;;1.90;;
16524;SDS011;8375;33.594;-117.718;2023-04-07T05:57:55;2.67;;;1.43;;
16524;SDS011;8375;33.594;-117.718;2023-04-07T06:00:24;6.10;;;1.60;;
16524;SDS011;8375;33.594;-117.718;2023-04-07T06:02:55;3.63;;;1.67;;
16524;SDS011;8375;33.594;-117.718;2023-04-07T06:05:23;4.97;;;1.60;;
16524;SDS011;8375;33.594;-117.718;2023-04-07T06:07:52;2.47;;;1.93;;
16524;SDS011;8375;33.594;-117.718;2023-04-07T06:10:43;3.63;;;1.97;;
16524;SDS011;8375;33.594;-117.718;2023-04-07T06:13:38;5.87;;;2.10;;
16524;SDS011;8375;33.594;-117.718;2023-04-07T06:16:06;4.17;;;1.93;;
16524;SDS011;8375;33.594;-117.718;2023-04-07T06:18:37;6.43;;;2.43;;
16524;SDS011;8375;33.594;-117.718;2023-04-07T06:21:05;4.53;;;2.30;;
16524;SDS011;8375;33.594;-117.718;2023-04-07T06:23:34;2.93;;;1.83;;
16524;SDS011;8375;33.594;-117.718;2023-04-07T06:26:03;7.27;;;1.90;;
16524;SDS011;8375;33.594;-117.718;2023-04-07T06:28:32;2.80;;;1.77;;
16524;SDS011;8375;33.594;-117.718;2023-04-07T06:31:00;5.43;;;2.00;;
16524;SDS011;8375;33.594;-117.718;2023-04-07T06:33:29;4.63;;;2.00;;
16524;SDS011;8375;33.594;-117.718;2023-04-07T06:35:59;4.47;;;2.00;;
16524;SDS011;8375;33.594;-117.718;2023-04-07T06:38:28;5.33;;;2.43;;
16524;SDS011;8375;33.594;-117.718;2023-04-07T06:40:57;3.83;;;2.17;;
16524;SDS011;8375;33.594;-117.718;2023-04-07T06:43:26;4.53;;;2.27;;
16524;SDS011;8375;33.594;-117.718;2023-04-07T06:45:54;3.47;;;2.10;;
16524;SDS011;8375;33.594;-117.718;2023-04-07T06:48:23;5.37;;;2.13;;
16524;SDS011;8375;33.594;-117.718;2023-04-07T06:50:52;2.37;;;1.80;;
16524;SDS011;8375;33.594;-117.718;2023-04-07T06:53:22;8.13;;;2.60;;
16524;SDS011;8375;33.594;-117.718;2023-04-07T06:55:51;3.57;;;2.10;;
16524;SDS011;8375;33.594;-117.718;2023-04-07T06:58:29;3.40;;;2.00;;
16524;SDS011;8375;33.594;-117.718;2023-04-07T07:00:58;4.40;;;1.80;;
16524;SDS011;8375;33.594;-117.718;2023-04-07T07:03:27;4.67;;;2.10;;
16524;SDS011;8375;33.594;-117.718;2023-04-07T07:05:56;5.23;;;2.00;;
16524;SDS011;8375;33.594;-117.718;2023-04-07T07:08:27;2.40;;;1.73;;
16524;SDS011;8375;33.594;-117.718;2023-04-07T07:10:56;4.30;;;2.10;;
16524;SDS011;8375;33.594;-117.718;2023-04-07T07:13:25;3.30;;;2.13;;
16524;SDS011;8375;33.594;-117.718;2023-04-07T07:15:55;3.20;;;1.93;;
16524;SDS011;8375;33.594;-117.718;2023-04-07T07:18:23;4.50;;;2.30;;
16524;SDS011;8375;33.594;-117.718;2023-04-07T07:21:11;4.53;;;2.20;;
16524;SDS011;8375;33.594;-117.718;2023-04-07T07:24:00;5.10;;;2.00;;
16524;SDS011;8375;33.594;-117.718;2023-04-07T07:26:29;5.40;;;2.00;;
16524;SDS011;8375;33.594;-117.718;2023-04-07T07:28:58;4.87;;;2.50;;
16524;SDS011;8375;33.594;-117.718;2023-04-07T07:31:26;5.60;;;2.13;;
16524;SDS011;8375;33.594;-117.718;2023-04-07T07:33:55;2.93;;;2.23;;
16524;SDS011;8375;33.594;-117.718;2023-04-07T07:36:24;2.60;;;1.90;;
16524;SDS011;8375;33.594;-117.718;2023-04-07T07:38:53;6.67;;;2.27;;
16524;SDS011;8375;33.594;-117.718;2023-04-07T07:41:23;4.73;;;2.80;;
16524;SDS011;8375;33.594;-117.718;2023-04-07T07:43:52;6.50;;;2.30;;
16524;SDS011;8375;33.594;-117.718;2023-04-07T07:46:21;4.00;;;2.13;;
16524;SDS011;8375;33.594;-117.718;2023-04-07T07:48:52;3.37;;;2.10;;
16524;SDS011;8375;33.594;-117.718;2023-04-07T07:51:20;3.63;;;2.20;;
16524;SDS011;8375;33.594;-117.718;2023-04-07T07:53:49;4.90;;;2.47;;
16524;SDS011;8375;33.594;-117.718;2023-04-07T07:56:18;3.30;;;2.23;;
16524;SDS011;8375;33.594;-117.718;2023-04-07T07:58:48;4.10;;;2.60;;
16524;SDS011;8375;33.594;-117.718;2023-04-07T08:01:17;5.33;;;2.23;;
16524;SDS011;8375;33.594;-117.718;2023-04-07T08:03:46;4.67;;;2.03;;
16524;SDS011;8375;33.594;-117.718;2023-04-07T08:06:15;6.03;;;2.50;;
16524;SDS011;8375;33.594;-117.718;2023-04-07T08:08:43;5.90;;;2.03;;
16524;SDS011;8375;33.594;-117.718;2023-04-07T08:11:12;3.90;;;2.40;;
16524;SDS011;8375;33.594;-117.718;2023-04-07T08:13:41;5.77;;;2.00;;
16524;SDS011;8375;33.594;-117.718;2023-04-07T08:16:12;5.00;;;2.10;;
16524;SDS011;8375;33.594;-117.718;2023-04-07T08:18:41;3.47;;;2.13;;
16524;SDS011;8375;33.594;-117.718;2023-04-07T08:21:09;6.17;;;2.60;;
16524;SDS011;8375;33.594;-117.718;2023-04-07T08:23:38;2.67;;;2.00;;
16524;SDS011;8375;33.594;-117.718;2023-04-07T08:26:07;6.20;;;2.40;;
16524;SDS011;8375;33.594;-117.718;2023-04-07T08:28:35;4.87;;;2.33;;
16524;SDS011;8375;33.594;-117.718;2023-04-07T08:31:04;3.40;;;2.20;;
16524;SDS011;8375;33.594;-117.718;2023-04-07T08:33:35;4.87;;;2.00;;
16524;SDS011;8375;33.594;-117.718;2023-04-07T08:36:04;6.43;;;2.60;;
16524;SDS011;8375;33.594;-117.718;2023-04-07T08:38:33;3.73;;;2.27;;
16524;SDS011;8375;33.594;-117.718;2023-04-07T08:41:02;4.20;;;2.43;;
16524;SDS011;8375;33.594;-117.718;2023-04-07T08:43:34;4.97;;;2.20;;
16524;SDS011;8375;33.594;-117.718;2023-04-07T08:46:05;5.60;;;2.47;;
16524;SDS011;8375;33.594;-117.718;2023-04-07T08:48:37;5.47;;;2.67;;
16524;SDS011;8375;33.594;-117.718;2023-04-07T08:51:10;7.30;;;2.90;;
16524;SDS011;8375;33.594;-117.718;2023-04-07T08:53:43;4.00;;;2.27;;
16524;SDS011;8375;33.594;-117.718;2023-04-07T08:56:16;4.60;;;2.70;;
16524;SDS011;8375;33.594;-117.718;2023-04-07T08:58:46;5.57;;;2.80;;
16524;SDS011;8375;33.594;-117.718;2023-04-07T09:01:15;5.63;;;2.57;;
16524;SDS011;8375;33.594;-117.718;2023-04-07T09:03:47;5.73;;;2.37;;
16524;SDS011;8375;33.594;-117.718;2023-04-07T09:06:17;5.30;;;2.47;;
16524;SDS011;8375;33.594;-117.718;2023-04-07T09:08:46;3.80;;;2.63;;
16524;SDS011;8375;33.594;-117.718;2023-04-07T09:11:14;6.23;;;2.63;;
16524;SDS011;8375;33.594;-117.718;2023-04-07T09:17:27;6.53;;;2.50;;
16524;SDS011;8375;33.594;-117.718;2023-04-07T09:19:58;3.50;;;1.80;;
16524;SDS011;8375;33.594;-117.718;2023-04-07T09:22:37;4.77;;;2.10;;
16524;SDS011;8375;33.594;-117.718;2023-04-07T09:25:11;3.67;;;2.37;;
16524;SDS011;8375;33.594;-117.718;2023-04-07T09:27:41;6.57;;;2.20;;
16524;SDS011;8375;33.594;-117.718;2023-04-07T09:30:22;6.13;;;2.30;;
16524;SDS011;8375;33.594;-117.718;2023-04-07T09:32:50;5.23;;;2.17;;
16524;SDS011;8375;33.594;-117.718;2023-04-07T09:35:21;3.70;;;2.30;;
16524;SDS011;8375;33.594;-117.718;2023-04-07T09:38:02;4.33;;;2.10;;
16524;SDS011;8375;33.594;-117.718;2023-04-07T09:40:31;4.27;;;2.20;;
16524;SDS011;8375;33.594;-117.718;2023-04-07T09:43:01;3.50;;;2.33;;
16524;SDS011;8375;33.594;-117.718;2023-04-07T09:45:31;3.97;;;2.60;;
16524;SDS011;8375;33.594;-117.718;2023-04-07T09:48:04;4.33;;;1.90;;
16524;SDS011;8375;33.594;-117.718;2023-04-07T09:50:35;5.57;;;2.70;;
16524;SDS011;8375;33.594;-117.718;2023-04-07T09:53:06;3.40;;;2.20;;
16524;SDS011;8375;33.594;-117.718;2023-04-07T09:55:34;5.60;;;2.53;;
16524;SDS011;8375;33.594;-117.718;2023-04-07T09:58:06;5.03;;;2.10;;
16524;SDS011;8375;33.594;-117.718;2023-04-07T10:00:36;3.93;;;2.27;;
16524;SDS011;8375;33.594;-117.718;2023-04-07T10:03:05;3.67;;;2.10;;
16524;SDS011;8375;33.594;-117.718;2023-04-07T10:05:36;3.57;;;2.03;;
16524;SDS011;8375;33.594;-117.718;2023-04-07T10:08:07;5.33;;;2.70;;
16524;SDS011;8375;33.594;-117.718;2023-04-07T10:10:37;3.93;;;2.17;;
16524;SDS011;8375;33.594;-117.718;2023-04-07T10:13:09;4.33;;;2.10;;
16524;SDS011;8375;33.594;-117.718;2023-04-07T10:15:38;4.07;;;2.33;;
16524;SDS011;8375;33.594;-117.718;2023-04-07T10:18:07;3.97;;;2.27;;
16524;SDS011;8375;33.594;-117.718;2023-04-07T10:20:38;6.43;;;2.83;;
16524;SDS011;8375;33.594;-117.718;2023-04-07T10:23:08;4.60;;;2.77;;
16524;SDS011;8375;33.594;-117.718;2023-04-07T10:25:45;5.87;;;2.73;;
16524;SDS011;8375;33.594;-117.718;2023-04-07T10:28:17;5.63;;;2.27;;
16524;SDS011;8375;33.594;-117.718;2023-04-07T10:30:47;3.67;;;2.30;;
16524;SDS011;8375;33.594;-117.718;2023-04-07T10:33:17;5.80;;;2.53;;
16524;SDS011;8375;33.594;-117.718;2023-04-07T10:36:15;5.90;;;2.50;;
16524;SDS011;8375;33.594;-117.718;2023-04-07T10:41:50;3.43;;;2.40;;
16524;SDS011;8375;33.594;-117.718;2023-04-07T10:47:12;4.37;;;2.50;;
16524;SDS011;8375;33.594;-117.718;2023-04-07T10:52:46;5.37;;;2.40;;
16524;SDS011;8375;33.594;-117.718;2023-04-07T10:55:29;5.40;;;2.70;;
16524;SDS011;8375;33.594;-117.718;2023-04-07T10:58:12;3.93;;;2.30;;
16524;SDS011;8375;33.594;-117.718;2023-04-07T11:03:52;7.97;;;2.63;;
16524;SDS011;8375;33.594;-117.718;2023-04-07T11:06:26;4.53;;;2.43;;
16524;SDS011;8375;33.594;-117.718;2023-04-07T11:08:56;4.27;;;2.30;;
16524;SDS011;8375;33.594;-117.718;2023-04-07T11:11:34;3.60;;;2.40;;
16524;SDS011;8375;33.594;-117.718;2023-04-07T11:14:04;6.40;;;2.40;;
16524;SDS011;8375;33.594;-117.718;2023-04-07T11:16:37;4.37;;;1.93;;
16524;SDS011;8375;33.594;-117.718;2023-04-07T11:19:10;3.00;;;1.90;;
16524;SDS011;8375;33.594;-117.718;2023-04-07T11:21:39;4.43;;;2.03;;
16524;SDS011;8375;33.594;-117.718;2023-04-07T11:24:09;2.83;;;2.00;;
16524;SDS011;8375;33.594;-117.718;2023-04-07T11:26:58;2.97;;;1.60;;
16524;SDS011;8375;33.594;-117.718;2023-04-07T11:29:27;5.00;;;2.07;;
16524;SDS011;8375;33.594;-117.718;2023-04-07T11:31:57;3.23;;;1.90;;
16524;SDS011;8375;33.594;-117.718;2023-04-07T11:34:28;5.23;;;2.23;;
16524;SDS011;8375;33.594;-117.718;2023-04-07T11:36:57;4.63;;;2.30;;
16524;SDS011;8375;33.594;-117.718;2023-04-07T11:39:52;5.73;;;2.57;;
16524;SDS011;8375;33.594;-117.718;2023-04-07T11:42:30;4.67;;;2.33;;
16524;SDS011;8375;33.594;-117.718;2023-04-07T11:44:59;4.40;;;2.40;;
16524;SDS011;8375;33.594;-117.718;2023-04-07T11:47:35;4.10;;;2.17;;
16524;SDS011;8375;33.594;-117.718;2023-04-07T11:50:05;5.40;;;2.53;;
16524;SDS011;8375;33.594;-117.718;2023-04-07T11:52:39;14.73;;;3.13;;
16524;SDS011;8375;33.594;-117.718;2023-04-07T11:55:17;10.20;;;3.10;;
16524;SDS011;8375;33.594;-117.718;2023-04-07T11:57:46;4.47;;;2.40;;
16524;SDS011;8375;33.594;-117.718;2023-04-07T12:00:16;5.50;;;2.43;;
16524;SDS011;8375;33.594;-117.718;2023-04-07T12:02:45;7.27;;;2.43;;
16524;SDS011;8375;33.594;-117.718;2023-04-07T12:05:14;3.93;;;2.40;;
16524;SDS011;8375;33.594;-117.718;2023-04-07T12:07:51;6.37;;;2.30;;
16524;SDS011;8375;33.594;-117.718;2023-04-07T12:10:23;4.23;;;2.57;;
16524;SDS011;8375;33.594;-117.718;2023-04-07T12:12:52;5.97;;;2.60;;
16524;SDS011;8375;33.594;-117.718;2023-04-07T12:15:20;8.60;;;2.60;;
16524;SDS011;8375;33.594;-117.718;2023-04-07T12:17:49;7.97;;;2.57;;
16524;SDS011;8375;33.594;-117.718;2023-04-07T12:20:18;4.50;;;2.47;;
16524;SDS011;8375;33.594;-117.718;2023-04-07T12:22:46;6.03;;;2.77;;
16524;SDS011;8375;33.594;-117.718;2023-04-07T12:25:15;5.47;;;2.07;;
16524;SDS011;8375;33.594;-117.718;2023-04-07T12:27:45;4.67;;;2.50;;
16524;SDS011;8375;33.594;-117.718;2023-04-07T12:30:14;3.87;;;1.90;;
16524;SDS011;8375;33.594;-117.718;2023-04-07T12:32:43;4.63;;;2.33;;
16524;SDS011;8375;33.594;-117.718;2023-04-07T12:35:11;2.37;;;2.17;;
16524;SDS011;8375;33.594;-117.718;2023-04-07T12:37:40;4.43;;;2.07;;
16524;SDS011;8375;33.594;-117.718;2023-04-07T12:40:09;2.87;;;2.17;;
16524;SDS011;8375;33.594;-117.718;2023-04-07T12:42:40;4.30;;;2.37;;
16524;SDS011;8375;33.594;-117.718;2023-04-07T12:45:11;5.53;;;2.17;;
16524;SDS011;8375;33.594;-117.718;2023-04-07T12:47:39;4.77;;;2.13;;
16524;SDS011;8375;33.594;-117.718;2023-04-07T12:50:09;4.60;;;2.50;;
16524;SDS011;8375;33.594;-117.718;2023-04-07T12:52:37;5.33;;;2.40;;
16524;SDS011;8375;33.594;-117.718;2023-04-07T12:55:06;6.00;;;2.33;;
16524;SDS011;8375;33.594;-117.718;2023-04-07T12:57:35;3.70;;;1.83;;
16524;SDS011;8375;33.594;-117.718;2023-04-07T13:00:04;3.80;;;2.13;;
16524;SDS011;8375;33.594;-117.718;2023-04-07T13:02:36;4.63;;;2.30;;
16524;SDS011;8375;33.594;-117.718;2023-04-07T13:05:05;5.40;;;2.30;;
16524;SDS011;8375;33.594;-117.718;2023-04-07T13:07:33;5.40;;;1.93;;
16524;SDS011;8375;33.594;-117.718;2023-04-07T13:10:02;4.07;;;2.10;;
16524;SDS011;8375;33.594;-117.718;2023-04-07T13:12:33;5.67;;;2.43;;
16524;SDS011;8375;33.594;-117.718;2023-04-07T13:15:01;5.00;;;2.23;;
16524;SDS011;8375;33.594;-117.718;2023-04-07T13:17:31;4.17;;;2.10;;
16524;SDS011;8375;33.594;-117.718;2023-04-07T13:20:02;3.97;;;2.30;;
16524;SDS011;8375;33.594;-117.718;2023-04-07T13:22:32;4.87;;;1.97;;
16524;SDS011;8375;33.594;-117.718;2023-04-07T13:25:00;4.37;;;2.40;;
16524;SDS011;8375;33.594;-117.718;2023-04-07T13:27:29;3.63;;;2.10;;
16524;SDS011;8375;33.594;-117.718;2023-04-07T13:29:58;3.87;;;2.20;;
16524;SDS011;8375;33.594;-117.718;2023-04-07T13:32:26;4.17;;;2.40;;
16524;SDS011;8375;33.594;-117.718;2023-04-07T13:34:55;5.07;;;2.33;;
16524;SDS011;8375;33.594;-117.718;2023-04-07T13:37:26;4.30;;;2.40;;
16524;SDS011;8375;33.594;-117.718;2023-04-07T13:39:55;6.07;;;2.40;;
16524;SDS011;8375;33.594;-117.718;2023-04-07T13:42:23;7.17;;;2.40;;
16524;SDS011;8375;33.594;-117.718;2023-04-07T13:44:52;3.57;;;2.27;;
16524;SDS011;8375;33.594;-117.718;2023-04-07T13:47:21;4.53;;;2.40;;
16524;SDS011;8375;33.594;-117.718;2023-04-07T13:49:49;4.47;;;2.13;;
16524;SDS011;8375;33.594;-117.718;2023-04-07T13:52:18;5.33;;;2.33;;
16524;SDS011;8375;33.594;-117.718;2023-04-07T13:54:49;7.10;;;2.47;;
16524;SDS011;8375;33.594;-117.718;2023-04-07T13:57:17;4.90;;;2.40;;
16524;SDS011;8375;33.594;-117.718;2023-04-07T13:59:47;4.40;;;2.37;;
16524;SDS011;8375;33.594;-117.718;2023-04-07T14:02:17;7.13;;;2.67;;
16524;SDS011;8375;33.594;-117.718;2023-04-07T14:04:46;3.90;;;2.30;;
16524;SDS011;8375;33.594;-117.718;2023-04-07T14:07:15;5.47;;;2.30;;
16524;SDS011;8375;33.594;-117.718;2023-04-07T14:09:43;3.70;;;2.40;;
16524;SDS011;8375;33.594;-117.718;2023-04-07T14:12:14;6.70;;;2.63;;
16524;SDS011;8375;33.594;-117.718;2023-04-07T14:14:45;2.97;;;2.03;;
16524;SDS011;8375;33.594;-117.718;2023-04-07T14:17:16;6.97;;;2.70;;
16524;SDS011;8375;33.594;-117.718;2023-04-07T14:19:45;4.20;;;2.00;;
16524;SDS011;8375;33.594;-117.718;2023-04-07T14:22:13;4.90;;;2.87;;
16524;SDS011;8375;33.594;-117.718;2023-04-07T14:24:42;5.97;;;2.87;;
16524;SDS011;8375;33.594;-117.718;2023-04-07T14:27:11;8.70;;;2.50;;
16524;SDS011;8375;33.594;-117.718;2023-04-07T14:29:45;5.47;;;2.67;;
16524;SDS011;8375;33.594;-117.718;2023-04-07T14:32:14;5.20;;;2.43;;
16524;SDS011;8375;33.594;-117.718;2023-04-07T14:34:43;3.00;;;2.17;;
16524;SDS011;8375;33.594;-117.718;2023-04-07T14:37:11;5.50;;;2.03;;
16524;SDS011;8375;33.594;-117.718;2023-04-07T14:39:41;5.90;;;2.50;;
16524;SDS011;8375;33.594;-117.718;2023-04-07T14:42:10;6.07;;;2.43;;
16524;SDS011;8375;33.594;-117.718;2023-04-07T14:44:40;5.73;;;2.30;;
16524;SDS011;8375;33.594;-117.718;2023-04-07T14:47:08;4.70;;;2.40;;
16524;SDS011;8375;33.594;-117.718;2023-04-07T14:49:37;5.63;;;2.40;;
16524;SDS011;8375;33.594;-117.718;2023-04-07T14:52:06;6.30;;;2.23;;
16524;SDS011;8375;33.594;-117.718;2023-04-07T14:54:35;3.90;;;2.63;;